createdAt,value
2022-12-07T04:56:22.390Z,23.05
2022-12-07T04:58:26.024Z,22.58
2022-12-07T05:00:29.592Z,24.77
2022-12-07T05:02:33.392Z,17.35
2022-12-07T05:04:40.890Z,18.17
2022-12-07T05:06:46.030Z,18.20
2022-12-07T05:08:50.209Z,14.35
2022-12-07T05:10:54.461Z,13.55
2022-12-07T05:12:58.410Z,12.55
2022-12-07T05:15:02.801Z,14.80
2022-12-07T05:17:08.090Z,15.32
2022-12-07T05:19:13.330Z,15.80
2022-12-07T05:21:17.279Z,15.75
2022-12-07T05:23:21.984Z,12.63
2022-12-07T05:25:29.849Z,16.13
2022-12-07T05:27:33.739Z,20.15
2022-12-07T05:29:39.161Z,19.42
2022-12-07T05:31:44.453Z,16.52
2022-12-07T05:33:48.441Z,16.55
2022-12-07T05:35:52.821Z,19.90
2022-12-07T05:37:57.461Z,19.67
2022-12-07T05:40:03.028Z,17.70
2022-12-07T05:42:16.940Z,17.40
2022-12-07T05:44:21.061Z,20.60
2022-12-07T05:46:25.542Z,20.02
2022-12-07T05:48:29.410Z,17.35
2022-12-07T05:50:33.650Z,16.70
2022-12-07T05:52:38.149Z,17.05
2022-12-07T05:54:45.519Z,18.75
2022-12-07T05:56:48.991Z,17.83
2022-12-07T05:59:12.040Z,23.35
2022-12-07T06:01:17.398Z,18.73
2022-12-07T06:03:21.289Z,20.88
2022-12-07T06:05:25.480Z,18.90
2022-12-07T06:07:29.736Z,17.48
2022-12-07T06:09:34.814Z,18.40
2022-12-07T06:11:58.389Z,19.02
2022-12-07T06:14:03.469Z,19.63
2022-12-07T06:16:08.235Z,19.95
2022-12-07T06:18:12.720Z,20.30
2022-12-07T06:20:16.669Z,21.40
2022-12-07T06:22:21.330Z,23.88
2022-12-07T06:24:25.799Z,20.90
2022-12-07T06:26:29.680Z,22.95
2022-12-07T06:28:34.173Z,23.58
2022-12-07T06:30:39.692Z,21.58
2022-12-07T06:32:43.439Z,20.92
2022-12-07T06:34:47.732Z,19.20
2022-12-07T06:36:54.870Z,18.40
2022-12-07T06:38:59.821Z,16.77
2022-12-07T06:41:04.279Z,15.98
2022-12-07T06:43:08.679Z,15.40
2022-12-07T06:45:13.550Z,15.95
2022-12-07T06:47:40.162Z,14.02
2022-12-07T06:49:42.135Z,14.45
2022-12-07T06:51:47.059Z,10.02
2022-12-07T06:53:51.362Z,12.02
2022-12-07T06:55:55.198Z,8.68
2022-12-07T06:57:59.711Z,11.45
2022-12-07T07:00:04.296Z,9.23
2022-12-07T07:02:09.057Z,13.65
2022-12-07T07:04:12.983Z,9.10
2022-12-07T07:06:18.450Z,9.10
2022-12-07T07:08:23.524Z,9.75
2022-12-07T07:10:27.970Z,8.90
2022-12-07T07:12:31.738Z,14.52
2022-12-07T07:14:36.053Z,8.98
2022-12-07T07:16:39.865Z,8.70
2022-12-07T07:18:43.860Z,10.02
2022-12-07T07:20:48.222Z,10.00
2022-12-07T07:22:54.071Z,12.07
2022-12-07T07:24:58.391Z,12.65
2022-12-07T07:27:02.180Z,12.82
2022-12-07T07:29:06.611Z,11.05
2022-12-07T07:31:10.980Z,13.45
2022-12-07T07:33:16.411Z,13.73
2022-12-07T07:35:21.002Z,11.10
2022-12-07T07:37:25.321Z,10.52
2022-12-07T07:39:29.782Z,11.07
2022-12-07T07:41:34.887Z,9.25
2022-12-07T07:43:39.190Z,9.27
2022-12-07T07:45:43.782Z,9.20
2022-12-07T07:47:47.980Z,9.90
2022-12-07T07:49:53.053Z,10.23
2022-12-07T07:51:57.327Z,8.48
2022-12-07T07:54:01.672Z,10.77
2022-12-07T07:56:08.941Z,11.23
2022-12-07T07:58:13.361Z,7.45
2022-12-07T08:00:19.230Z,15.93
2022-12-07T08:02:24.890Z,11.45
2022-12-07T08:04:29.544Z,10.23
2022-12-07T08:06:33.651Z,14.00
2022-12-07T08:08:38.580Z,12.27
2022-12-07T08:10:43.409Z,12.20
2022-12-07T08:13:06.860Z,11.05
2022-12-07T08:15:11.930Z,15.75
2022-12-07T08:17:16.840Z,12.38
2022-12-07T08:19:21.120Z,11.52
2022-12-07T08:21:25.921Z,12.70
2022-12-07T08:23:37.653Z,11.68
2022-12-07T08:25:44.049Z,11.20
2022-12-07T08:27:49.001Z,10.13
2022-12-07T08:29:52.389Z,14.15
2022-12-07T08:31:56.760Z,10.45
2022-12-07T08:34:02.411Z,10.30
2022-12-07T08:36:08.541Z,8.75
2022-12-07T08:38:12.921Z,10.57
2022-12-07T08:40:19.411Z,8.77
2022-12-07T08:42:25.750Z,13.13
2022-12-07T08:44:29.500Z,9.45
2022-12-07T08:46:59.000Z,10.07
2022-12-07T08:49:12.179Z,12.35
2022-12-07T08:51:17.451Z,12.23
2022-12-07T08:53:21.288Z,9.10
2022-12-07T08:55:25.461Z,9.38
2022-12-07T08:57:31.311Z,12.50
2022-12-07T08:59:38.022Z,8.95
2022-12-07T09:01:42.147Z,9.02
2022-12-07T09:03:47.110Z,13.15
2022-12-07T09:06:05.165Z,9.48
2022-12-07T09:08:11.329Z,8.23
2022-12-07T09:10:23.802Z,9.38
2022-12-07T09:12:28.682Z,11.07
2022-12-07T09:14:33.890Z,8.43
2022-12-07T09:16:37.740Z,8.32
2022-12-07T09:18:42.778Z,6.63
2022-12-07T09:20:47.809Z,7.93
2022-12-07T09:22:54.608Z,11.52
2022-12-07T09:24:59.272Z,8.45
2022-12-07T09:27:03.190Z,7.13
2022-12-07T09:29:07.468Z,8.00
2022-12-07T09:31:27.093Z,6.35
2022-12-07T09:33:32.550Z,9.35
2022-12-07T09:35:36.921Z,6.63
2022-12-07T09:37:41.178Z,8.95
2022-12-07T09:39:50.058Z,7.50
2022-12-07T09:41:57.472Z,6.78
2022-12-07T09:44:11.278Z,8.57
2022-12-07T09:46:20.748Z,8.57
2022-12-07T09:48:35.268Z,8.13
2022-12-07T09:50:39.490Z,10.15
2022-12-07T09:52:44.639Z,10.65
2022-12-07T09:54:52.158Z,10.48
2022-12-07T09:56:57.469Z,11.95
2022-12-07T09:59:05.487Z,9.23
2022-12-07T10:01:13.878Z,8.57
2022-12-07T10:03:17.709Z,9.00
2022-12-07T10:05:33.505Z,8.68
2022-12-07T10:07:38.822Z,12.18
2022-12-07T10:09:43.118Z,10.60
2022-12-07T10:12:08.840Z,9.52
2022-12-07T10:14:17.100Z,9.48
2022-12-07T10:16:27.573Z,12.63
2022-12-07T10:18:40.511Z,9.90
2022-12-07T10:20:44.389Z,10.27
2022-12-07T10:23:05.241Z,14.60
2022-12-07T10:25:22.549Z,11.80
2022-12-07T10:27:35.653Z,10.93
2022-12-07T10:29:41.959Z,9.43
2022-12-07T10:31:48.225Z,9.57
2022-12-07T10:33:54.371Z,9.98
2022-12-07T10:35:58.719Z,12.25
2022-12-07T10:38:03.347Z,14.52
2022-12-07T10:40:30.019Z,11.18
2022-12-07T10:42:35.539Z,12.32
2022-12-07T10:44:39.882Z,13.25
2022-12-07T10:46:55.320Z,12.90
2022-12-07T10:49:18.089Z,13.50
2022-12-07T10:51:39.427Z,11.70
2022-12-07T10:54:05.115Z,12.67
2022-12-07T10:56:49.694Z,12.10
2022-12-07T10:59:18.028Z,14.60
2022-12-07T11:01:46.282Z,13.32
2022-12-07T11:04:03.098Z,13.48
2022-12-07T11:06:13.427Z,13.38
2022-12-07T11:08:29.879Z,17.45
2022-12-07T11:11:17.288Z,18.52
2022-12-07T11:13:34.249Z,16.08
2022-12-07T11:15:59.410Z,14.18
2022-12-07T11:18:15.377Z,13.63
2022-12-07T11:20:22.548Z,11.63
2022-12-07T11:22:56.289Z,12.95
2022-12-07T11:25:25.692Z,12.02
2022-12-07T11:27:56.877Z,16.35
2022-12-07T11:30:15.823Z,15.85
2022-12-07T11:32:26.476Z,13.70
2022-12-07T11:34:55.049Z,12.10
2022-12-07T11:37:00.689Z,15.07
2022-12-07T11:39:17.318Z,10.68
2022-12-07T11:41:29.106Z,10.77
2022-12-07T11:43:38.938Z,15.13
2022-12-07T11:45:47.340Z,11.23
2022-12-07T11:48:10.698Z,16.02
2022-12-07T11:50:24.432Z,15.75
2022-12-07T11:52:38.399Z,14.55
2022-12-07T11:54:46.488Z,15.38
2022-12-07T11:56:55.969Z,13.95
2022-12-07T11:59:13.489Z,18.50
2022-12-07T12:01:20.170Z,16.67
2022-12-07T12:03:33.604Z,15.32
2022-12-07T12:05:38.689Z,20.38
2022-12-07T12:10:32.706Z,22.33
2022-12-07T12:15:45.787Z,22.30
2022-12-07T12:18:29.185Z,25.58
2022-12-07T12:20:51.659Z,31.48
2022-12-07T12:23:25.149Z,32.03
2022-12-07T12:25:36.659Z,29.60
2022-12-07T12:27:42.668Z,24.92
2022-12-07T12:29:47.800Z,34.97
2022-12-07T12:32:31.718Z,32.33
2022-12-07T12:34:37.570Z,29.10
2022-12-07T12:36:44.843Z,31.10
2022-12-07T12:39:02.629Z,36.28
2022-12-07T12:41:08.613Z,37.22
2022-12-07T12:43:45.908Z,32.45
2022-12-07T12:45:50.355Z,37.28
2022-12-07T12:48:03.337Z,30.45
2022-12-07T12:50:28.665Z,36.13
2022-12-07T12:52:50.171Z,35.67
2022-12-07T12:55:12.722Z,29.13
2022-12-07T12:57:27.867Z,30.55
2022-12-07T12:59:42.478Z,31.70
2022-12-07T13:01:47.413Z,32.20
2022-12-07T13:03:59.438Z,29.60
2022-12-07T13:06:36.088Z,28.65
2022-12-07T13:08:45.058Z,25.45
2022-12-07T13:10:51.666Z,34.90
2022-12-07T13:13:23.159Z,31.48
2022-12-07T13:15:40.420Z,38.10
2022-12-07T13:17:44.238Z,38.08
2022-12-07T13:19:48.539Z,38.53
2022-12-07T13:21:52.560Z,29.88
2022-12-07T13:24:02.426Z,39.70
2022-12-07T13:26:22.332Z,30.52
2022-12-07T13:28:35.107Z,32.33
2022-12-07T13:31:07.544Z,29.02
2022-12-07T13:33:12.969Z,33.92
2022-12-07T17:39:02.449Z,18.65
2022-12-07T17:41:40.172Z,15.98
2022-12-07T17:43:44.430Z,14.07
2022-12-07T17:45:48.873Z,13.18
2022-12-07T17:47:53.290Z,12.15
2022-12-07T17:49:59.523Z,11.75
2022-12-07T17:52:26.869Z,10.65
2022-12-07T17:54:32.341Z,10.43
2022-12-07T17:56:38.249Z,13.57
2022-12-07T17:58:43.279Z,9.88
2022-12-07T18:00:47.773Z,14.32
2022-12-07T18:02:51.602Z,12.45
2022-12-07T18:04:56.089Z,11.13
2022-12-07T18:07:00.858Z,10.52
2022-12-07T18:09:06.401Z,11.77
2022-12-07T18:11:10.743Z,12.50
2022-12-07T18:13:34.185Z,11.05
2022-12-07T18:15:38.468Z,12.73
2022-12-07T18:17:45.687Z,13.80
2022-12-07T18:19:49.659Z,8.00
2022-12-07T18:21:54.628Z,12.15
2022-12-07T18:24:03.142Z,10.95
2022-12-07T18:26:08.110Z,12.48
2022-12-07T18:28:13.018Z,9.32
2022-12-07T18:30:17.459Z,7.88
2022-12-07T18:32:21.793Z,14.40
2022-12-07T18:34:25.589Z,12.65
2022-12-07T18:36:29.962Z,13.05
2022-12-07T18:38:36.570Z,9.10
2022-12-07T18:40:42.339Z,7.88
2022-12-07T18:42:49.089Z,9.88
2022-12-07T18:44:53.628Z,11.07
2022-12-07T18:46:58.122Z,8.82
2022-12-07T18:49:02.539Z,8.50
2022-12-07T18:51:19.310Z,10.52
2022-12-07T18:53:23.628Z,8.30
2022-12-07T18:55:48.238Z,11.70
2022-12-07T18:57:54.830Z,9.30
2022-12-07T19:00:15.719Z,7.82
2022-12-07T19:02:21.634Z,9.45
2022-12-07T19:04:26.017Z,12.00
2022-12-07T19:06:30.189Z,7.82
2022-12-07T19:08:36.353Z,9.52
2022-12-07T19:10:41.289Z,11.13
2022-12-07T19:12:45.721Z,11.02
2022-12-07T19:14:49.729Z,9.57
2022-12-07T19:16:56.730Z,8.45
2022-12-07T19:19:00.820Z,9.85
2022-12-07T19:21:05.578Z,11.20
2022-12-07T19:23:10.834Z,9.98
2022-12-07T19:25:24.380Z,12.68
2022-12-07T19:27:34.711Z,12.32
2022-12-07T19:29:41.410Z,8.60
2022-12-07T19:31:45.864Z,7.93
2022-12-07T19:33:50.867Z,9.85
2022-12-07T19:35:55.350Z,10.13
2022-12-07T19:37:59.740Z,12.02
2022-12-07T19:40:04.779Z,14.52
2022-12-07T19:42:09.863Z,11.52
2022-12-07T19:44:20.130Z,16.10
2022-12-07T19:46:24.030Z,13.43
2022-12-07T19:48:27.728Z,11.27
2022-12-07T19:50:32.338Z,9.30
2022-12-07T19:52:36.982Z,10.60
2022-12-07T19:54:42.950Z,11.40
2022-12-07T19:56:47.529Z,10.10
2022-12-07T19:58:51.438Z,9.68
2022-12-07T20:00:55.784Z,8.30
2022-12-07T20:03:00.351Z,7.82
2022-12-07T20:05:06.546Z,6.93
2022-12-07T20:07:11.206Z,8.75
2022-12-07T20:09:15.701Z,6.47
2022-12-07T20:11:41.071Z,6.40
2022-12-07T20:13:45.359Z,9.70
2022-12-07T20:15:49.588Z,13.00
2022-12-07T20:17:53.820Z,7.05
2022-12-07T20:19:58.940Z,7.65
2022-12-07T20:22:03.179Z,7.82
2022-12-07T20:24:08.948Z,9.88
2022-12-07T20:26:14.511Z,7.00
2022-12-07T20:28:18.539Z,10.68
2022-12-07T20:30:22.721Z,8.15
2022-12-07T20:32:26.979Z,7.22
2022-12-07T20:34:31.370Z,9.15
